Time;durP1;ratioP1;P1;durP2;ratioP2;P2;SDS_P1;SDS_P2;PMS_P1;PMS_P2;Temp;Humidity;BMP_temperature;BMP_pressure;BME280_temperature;BME280_humidity;BME280_pressure;Samples;Min_cycle;Max_cycle;Signal;HPM_P1;HPM_P2
2021/06/14 00:00:05;;;;;;;4.90;2.78;;;18.90;91.60;;;;;;4129153;28;20044;-84
2021/06/14 00:02:06;;;;;;;4.07;2.88;;;18.80;91.30;;;;;;4141264;28;20662;-84
2021/06/14 00:04:06;;;;;;;6.10;2.67;;;18.80;90.90;;;;;;4130560;28;20038;-83
2021/06/14 00:06:07;;;;;;;4.00;2.63;;;18.80;91.00;;;;;;4130719;28;20027;-83
2021/06/14 00:08:11;;;;;;;4.10;2.60;;;18.80;90.80;;;;;;4130722;28;20060;-83
2021/06/14 00:10:14;;;;;;;5.95;2.65;;;18.70;90.90;;;;;;4146108;28;20152;-83
2021/06/14 00:12:21;;;;;;;6.15;3.33;;;18.70;91.10;;;;;;4129713;28;20043;-83
2021/06/14 00:14:21;;;;;;;3.83;2.50;;;18.70;90.80;;;;;;4129604;28;20385;-83
2021/06/14 00:16:22;;;;;;;6.53;3.17;;;18.70;91.10;;;;;;4148113;28;20037;-83
2021/06/14 00:18:23;;;;;;;4.80;2.78;;;18.60;91.90;;;;;;4129878;28;20038;-83
2021/06/14 00:20:24;;;;;;;5.05;2.90;;;18.60;91.80;;;;;;4132267;28;20038;-83
2021/06/14 00:22:25;;;;;;;4.78;3.03;;;18.50;91.60;;;;;;4146290;28;20181;-83
2021/06/14 00:24:26;;;;;;;5.65;3.30;;;18.50;91.90;;;;;;4144648;28;20045;-84
2021/06/14 00:26:26;;;;;;;5.80;3.25;;;18.50;92.30;;;;;;4130368;28;20042;-84
2021/06/14 00:28:27;;;;;;;6.57;3.10;;;18.40;92.20;;;;;;4144507;28;20041;-84
2021/06/14 00:30:37;;;;;;;4.45;2.60;;;18.40;92.20;;;;;;4130338;28;20038;-84
2021/06/14 00:32:39;;;;;;;4.20;2.83;;;18.40;92.30;;;;;;4146419;28;20033;-84
2021/06/14 00:34:40;;;;;;;5.23;3.13;;;18.40;92.00;;;;;;4125092;28;20365;-84
2021/06/14 00:36:46;;;;;;;4.40;3.00;;;18.30;93.10;;;;;;4128633;28;20097;-84
2021/06/14 00:38:46;;;;;;;6.40;3.05;;;18.30;93.00;;;;;;4129547;28;20050;-84
2021/06/14 00:40:48;;;;;;;4.90;3.30;;;18.30;93.20;;;;;;4124251;28;20038;-84
2021/06/14 00:42:49;;;;;;;4.25;3.15;;;18.30;94.10;;;;;;4145869;28;20037;-84
2021/06/14 00:44:50;;;;;;;3.58;2.75;;;18.30;93.70;;;;;;4126920;28;20105;-84
2021/06/14 00:46:50;;;;;;;5.88;3.20;;;18.30;93.70;;;;;;4130143;28;20030;-84
2021/06/14 00:48:51;;;;;;;5.53;3.20;;;18.20;93.40;;;;;;4125702;28;20055;-83
2021/06/14 00:51:09;;;;;;;8.45;3.25;;;18.30;94.00;;;;;;4128520;28;20038;-83
2021/06/14 00:53:16;;;;;;;4.75;2.90;;;18.30;93.80;;;;;;4141982;28;20022;-84
2021/06/14 00:55:30;;;;;;;3.60;2.90;;;18.30;94.30;;;;;;4129959;28;20035;-83
2021/06/14 00:57:31;;;;;;;4.00;2.78;;;18.20;93.30;;;;;;4146138;28;20398;-83
2021/06/14 00:59:32;;;;;;;5.22;3.08;;;18.20;93.30;;;;;;4123286;28;21539;-83
2021/06/14 01:01:33;;;;;;;5.00;3.40;;;18.20;94.00;;;;;;4146523;28;20049;-83
2021/06/14 01:03:34;;;;;;;5.63;3.33;;;18.10;94.30;;;;;;4129733;28;20026;-83
2021/06/14 01:05:55;;;;;;;4.80;2.88;;;18.10;94.30;;;;;;4125828;28;20037;-83
2021/06/14 01:07:56;;;;;;;4.22;2.85;;;18.00;94.20;;;;;;4129623;28;20045;-83
2021/06/14 01:10:05;;;;;;;4.75;2.92;;;18.00;93.90;;;;;;4127622;28;20034;-84
2021/06/14 01:12:10;;;;;;;4.03;2.78;;;18.00;94.10;;;;;;4123152;28;20048;-84
2021/06/14 01:17:25;;;;;;;6.43;3.42;;;18.00;94.50;;;;;;4145482;28;20366;-83
2021/06/14 01:19:43;;;;;;;6.50;3.70;;;17.90;94.20;;;;;;4129121;28;20433;-83
2021/06/14 01:22:20;;;;;;;5.43;3.20;;;17.90;94.70;;;;;;4126624;28;20038;-83
2021/06/14 01:24:42;;;;;;;6.18;3.33;;;17.90;94.90;;;;;;4129986;28;20043;-83
2021/06/14 01:27:02;;;;;;;7.15;3.13;;;17.80;94.80;;;;;;4129692;28;20038;-84
2021/06/14 01:29:04;;;;;;;4.90;3.20;;;17.80;94.60;;;;;;4126619;28;20459;-84
2021/06/14 01:31:05;;;;;;;8.18;3.00;;;17.80;94.70;;;;;;4136777;28;20026;-84
2021/06/14 01:33:09;;;;;;;4.32;2.92;;;17.70;94.80;;;;;;4140342;28;20081;-83
2021/06/14 01:35:13;;;;;;;5.45;3.60;;;17.70;94.70;;;;;;4145510;28;20029;-84
2021/06/14 01:37:15;;;;;;;6.80;3.70;;;17.70;95.10;;;;;;4129838;28;20057;-84
2021/06/14 01:39:17;;;;;;;4.95;3.10;;;17.70;95.40;;;;;;4129618;28;20360;-84
2021/06/14 01:41:20;;;;;;;4.63;3.15;;;17.60;95.00;;;;;;4139669;28;20363;-84
2021/06/14 01:43:31;;;;;;;5.75;3.10;;;17.60;95.20;;;;;;4126972;28;20125;-84
2021/06/14 01:45:33;;;;;;;3.92;2.95;;;17.60;95.00;;;;;;4129327;28;20052;-84
2021/06/14 01:47:33;;;;;;;5.67;3.60;;;17.50;95.10;;;;;;4145525;28;20125;-84
2021/06/14 01:49:44;;;;;;;5.93;3.65;;;17.50;95.40;;;;;;4128777;28;20266;-84
2021/06/14 01:51:45;;;;;;;5.70;3.33;;;17.50;96.00;;;;;;4141085;28;20029;-84
2021/06/14 01:54:07;;;;;;;4.82;3.17;;;17.50;96.00;;;;;;4128928;28;20030;-84
2021/06/14 01:56:09;;;;;;;4.93;3.03;;;17.50;95.80;;;;;;4128966;28;20128;-84
2021/06/14 01:58:10;;;;;;;5.07;3.20;;;17.50;96.00;;;;;;4127404;28;20038;-84
2021/06/14 02:00:11;;;;;;;6.20;3.25;;;17.50;95.50;;;;;;4132897;28;20046;-83
2021/06/14 02:02:14;;;;;;;7.13;3.15;;;17.50;95.70;;;;;;4125892;28;20034;-83
2021/06/14 02:04:15;;;;;;;;;;;17.50;96.40;;;;;;4124309;28;20034;-84
2021/06/14 02:06:29;;;;;;;6.53;3.53;;;17.40;95.30;;;;;;4145770;28;19909;-84
2021/06/14 02:08:30;;;;;;;4.22;3.33;;;17.40;95.60;;;;;;4140460;28;20034;-83
2021/06/14 02:10:41;;;;;;;5.18;3.20;;;17.40;95.90;;;;;;4126837;28;20049;-83
2021/06/14 02:12:42;;;;;;;5.18;3.53;;;17.30;95.80;;;;;;4128479;28;20045;-83
2021/06/14 02:14:45;;;;;;;4.97;3.15;;;17.30;95.90;;;;;;4139310;28;20030;-84
2021/06/14 02:16:47;;;;;;;;;;;17.30;96.50;;;;;;4145921;28;20394;-84
2021/06/14 02:18:48;;;;;;;5.32;3.08;;;17.20;96.60;;;;;;4128497;28;19913;-84
2021/06/14 02:20:49;;;;;;;5.47;3.37;;;17.20;96.50;;;;;;4143589;28;20064;-84
2021/06/14 02:22:50;;;;;;;6.88;3.45;;;17.20;96.20;;;;;;4128294;28;20094;-84
2021/06/14 02:24:51;;;;;;;4.95;3.33;;;17.20;97.00;;;;;;4144527;28;20093;-84
2021/06/14 02:26:52;;;;;;;5.03;3.33;;;17.10;96.50;;;;;;4147077;28;20393;-83
2021/06/14 02:28:52;;;;;;;6.13;3.58;;;17.20;96.90;;;;;;4126506;28;20073;-83
2021/06/14 02:30:53;;;;;;;5.60;3.53;;;17.10;97.20;;;;;;4140012;28;20073;-83
2021/06/14 02:32:55;;;;;;;5.80;3.50;;;17.10;97.00;;;;;;4140763;28;20034;-83
2021/06/14 02:34:56;;;;;;;6.28;3.97;;;17.10;97.20;;;;;;4142747;28;20037;-83
2021/06/14 02:36:59;;;;;;;6.93;4.00;;;17.10;97.30;;;;;;4143827;28;20056;-84
2021/06/14 02:39:03;;;;;;;5.45;3.35;;;17.10;97.60;;;;;;4128600;28;20030;-84
2021/06/14 02:41:21;;;;;;;5.07;3.60;;;17.00;97.30;;;;;;4128828;28;20022;-83
2021/06/14 02:43:22;;;;;;;5.80;3.70;;;17.10;97.50;;;;;;4140240;28;20033;-83
2021/06/14 02:45:25;;;;;;;7.00;3.97;;;17.10;98.20;;;;;;4128441;28;20039;-83
2021/06/14 02:47:27;;;;;;;5.57;3.67;;;17.00;98.80;;;;;;4142388;28;20034;-83
2021/06/14 02:49:30;;;;;;;5.85;3.65;;;17.00;98.40;;;;;;4138652;28;20033;-83
2021/06/14 02:51:32;;;;;;;5.88;3.42;;;17.10;98.90;;;;;;4144288;28;20555;-83
2021/06/14 02:53:34;;;;;;;4.68;3.33;;;17.00;98.70;;;;;;4144596;28;20120;-83
2021/06/14 02:55:42;;;;;;;6.60;3.55;;;17.00;99.00;;;;;;4124837;28;20038;-83
2021/06/14 02:57:57;;;;;;;5.22;3.13;;;17.00;99.60;;;;;;4128275;28;20065;-83
2021/06/14 02:59:58;;;;;;;5.60;3.05;;;17.00;98.70;;;;;;4143850;28;20548;-83
2021/06/14 03:02:00;;;;;;;4.57;3.25;;;17.10;99.30;;;;;;4128104;28;20030;-83
2021/06/14 03:04:05;;;;;;;4.72;3.22;;;17.10;98.60;;;;;;4127792;28;20084;-83
2021/06/14 03:06:11;;;;;;;6.55;3.55;;;17.10;98.40;;;;;;4128360;28;20034;-83
2021/06/14 03:08:11;;;;;;;4.65;3.03;;;17.00;98.20;;;;;;4124739;28;20053;-83
2021/06/14 03:10:13;;;;;;;6.20;3.50;;;17.00;98.10;;;;;;4144249;28;20065;-83
2021/06/14 03:12:14;;;;;;;4.88;3.10;;;17.00;99.10;;;;;;4138744;28;20039;-84
2021/06/14 03:14:15;;;;;;;3.17;2.78;;;17.00;98.50;;;;;;4142443;28;20537;-84
2021/06/14 03:16:23;;;;;;;4.88;3.65;;;16.90;98.50;;;;;;4144258;28;20045;-83
2021/06/14 03:18:25;;;;;;;4.57;3.17;;;16.90;99.00;;;;;;4125131;28;20044;-83
2021/06/14 03:20:26;;;;;;;5.88;3.28;;;16.90;99.90;;;;;;4126927;28;20120;-83
2021/06/14 03:22:43;;;;;;;5.25;3.60;;;16.90;99.60;;;;;;4135179;28;20093;-84
2021/06/14 03:24:43;;;;;;;7.25;3.75;;;16.80;99.30;;;;;;4126535;28;20133;-84
2021/06/14 03:26:58;;;;;;;5.82;3.65;;;16.90;99.20;;;;;;4139580;28;20034;-83
2021/06/14 03:29:00;;;;;;;4.97;3.63;;;16.80;99.60;;;;;;4127595;28;20041;-83
2021/06/14 03:31:02;;;;;;;4.10;2.97;;;16.80;99.80;;;;;;4144322;28;20553;-83
2021/06/14 03:33:05;;;;;;;5.90;3.93;;;16.80;99.50;;;;;;4127812;28;20089;-83
2021/06/14 03:35:18;;;;;;;5.18;3.05;;;16.70;99.20;;;;;;4124909;28;20277;-83
2021/06/14 03:37:19;;;;;;;6.05;3.60;;;16.70;99.30;;;;;;4125142;28;20039;-84
2021/06/14 03:39:20;;;;;;;4.85;3.47;;;16.70;99.90;;;;;;4142148;28;20088;-84
2021/06/14 03:41:21;;;;;;;5.32;3.50;;;16.70;99.90;;;;;;4143899;28;20616;-83
2021/06/14 03:43:23;;;;;;;5.53;4.00;;;16.70;99.90;;;;;;4127722;28;20030;-83
2021/06/14 03:45:24;;;;;;;4.28;3.22;;;16.60;99.90;;;;;;4127778;28;20088;-83
2021/06/14 03:47:25;;;;;;;6.18;3.40;;;16.60;99.90;;;;;;4127632;28;20030;-83
2021/06/14 03:49:26;;;;;;;5.50;3.58;;;16.60;99.90;;;;;;4143827;28;20120;-83
2021/06/14 03:51:26;;;;;;;6.50;3.90;;;16.60;99.90;;;;;;4127434;28;20038;-83
2021/06/14 03:53:33;;;;;;;4.40;3.28;;;16.60;99.90;;;;;;4129872;28;20664;-83
2021/06/14 03:55:34;;;;;;;5.68;3.50;;;16.60;99.90;;;;;;4139546;28;20100;-83
2021/06/14 03:57:44;;;;;;;6.13;3.63;;;16.60;99.90;;;;;;4127803;28;20030;-83
2021/06/14 03:59:44;;;;;;;5.65;3.83;;;16.60;99.90;;;;;;4127361;28;20054;-83
2021/06/14 04:01:54;;;;;;;5.15;3.78;;;16.60;99.90;;;;;;4127555;28;20390;-83
2021/06/14 04:06:05;;;;;;;5.00;3.97;;;16.60;99.90;;;;;;4144152;28;20965;-83
2021/06/14 04:08:06;;;;;;;6.18;3.50;;;16.60;99.90;;;;;;4126707;28;20031;-84
2021/06/14 04:10:07;;;;;;;5.95;3.92;;;16.60;99.90;;;;;;4143710;28;20084;-83
2021/06/14 04:12:09;;;;;;;5.07;3.40;;;16.60;99.90;;;;;;4142953;28;20073;-83
2021/06/14 04:14:18;;;;;;;5.70;3.70;;;16.60;99.90;;;;;;4144051;28;20921;-83
2021/06/14 04:16:19;;;;;;;7.60;4.10;;;16.60;99.90;;;;;;4126780;28;20105;-83
2021/06/14 04:18:33;;;;;;;6.45;3.80;;;16.60;99.90;;;;;;4144183;28;20057;-83
2021/06/14 04:20:37;;;;;;;6.63;3.63;;;16.60;99.90;;;;;;4128623;28;20502;-83
2021/06/14 04:23:00;;;;;;;7.70;4.05;;;16.60;99.90;;;;;;4130025;28;20491;-83
2021/06/14 04:25:04;;;;;;;7.30;4.43;;;16.60;99.90;;;;;;4130302;28;20038;-83
2021/06/14 04:27:05;;;;;;;6.45;4.55;;;16.60;99.90;;;;;;4130395;28;20110;-84
2021/06/14 04:29:12;;;;;;;8.80;4.65;;;16.60;99.90;;;;;;4130766;28;20510;-84
2021/06/14 04:31:13;;;;;;;6.38;4.05;;;16.60;99.90;;;;;;4130738;28;20049;-83
2021/06/14 04:33:13;;;;;;;7.93;4.28;;;16.60;99.90;;;;;;4141491;28;20034;-83
2021/06/14 04:35:32;;;;;;;7.15;3.97;;;16.60;99.90;;;;;;4121494;28;20110;-83
2021/06/14 04:37:33;;;;;;;6.53;4.15;;;16.60;99.90;;;;;;4124484;28;20114;-83
2021/06/14 04:39:34;;;;;;;7.30;3.95;;;16.60;99.90;;;;;;4120862;28;20039;-83
2021/06/14 04:41:36;;;;;;;7.88;4.32;;;16.60;99.90;;;;;;4146661;28;20059;-83
2021/06/14 04:43:37;;;;;;;5.30;3.78;;;16.60;99.90;;;;;;4129979;28;20233;-83
2021/06/14 04:45:37;;;;;;;6.05;4.13;;;16.60;99.90;;;;;;4147293;28;20038;-83
2021/06/14 04:47:38;;;;;;;6.20;3.80;;;16.60;99.90;;;;;;4147731;28;20393;-83
2021/06/14 04:49:39;;;;;;;5.47;3.88;;;16.60;99.90;;;;;;4142266;28;20588;-83
2021/06/14 04:51:39;;;;;;;5.32;3.90;;;16.70;99.90;;;;;;4130692;28;20026;-83
2021/06/14 04:53:40;;;;;;;6.57;4.13;;;16.70;99.90;;;;;;4127917;28;20391;-83
2021/06/14 04:55:41;;;;;;;5.90;3.75;;;16.70;99.90;;;;;;4146892;28;20037;-83
2021/06/14 04:57:42;;;;;;;6.35;3.63;;;16.80;99.90;;;;;;4129677;28;20031;-80
2021/06/14 04:59:45;;;;;;;6.53;4.20;;;16.80;99.90;;;;;;4148010;28;20175;-80
2021/06/14 05:01:45;;;;;;;;;;;16.80;99.90;;;;;;4127150;28;20039;-80
2021/06/14 05:03:46;;;;;;;11.60;3.63;;;16.80;99.90;;;;;;4145205;28;19909;-80
2021/06/14 05:05:52;;;;;;;6.78;3.95;;;16.90;99.90;;;;;;4129306;28;20031;-80
2021/06/14 05:07:53;;;;;;;8.10;3.70;;;16.90;99.90;;;;;;4145529;28;20081;-79
2021/06/14 05:10:06;;;;;;;6.03;4.00;;;16.90;99.90;;;;;;4142188;28;20026;-80
2021/06/14 05:12:07;;;;;;;5.78;3.20;;;16.90;99.90;;;;;;4145999;28;20045;-80
2021/06/14 05:14:08;;;;;;;8.27;4.32;;;16.90;99.90;;;;;;4143975;28;20041;-80
2021/06/14 05:16:10;;;;;;;6.90;3.80;;;17.00;99.90;;;;;;4131752;28;20034;-80
2021/06/14 05:18:17;;;;;;;6.93;4.28;;;17.00;99.90;;;;;;4162600;28;20037;-79
2021/06/14 05:20:18;;;;;;;9.35;3.70;;;17.10;99.90;;;;;;4150596;28;20160;-80
2021/06/14 05:22:27;;;;;;;7.38;3.65;;;17.10;99.90;;;;;;4145170;28;20115;-80
2021/06/14 05:24:31;;;;;;;5.28;3.10;;;17.10;99.90;;;;;;4145036;28;20038;-81
2021/06/14 05:26:32;;;;;;;8.95;4.05;;;17.20;99.90;;;;;;4148537;28;20120;-79
2021/06/14 05:28:40;;;;;;;5.97;3.50;;;17.20;99.90;;;;;;4146925;28;20398;-80
2021/06/14 05:30:40;;;;;;;9.07;4.13;;;17.20;99.90;;;;;;4133861;28;20040;-81
2021/06/14 05:32:43;;;;;;;6.53;3.65;;;17.20;99.90;;;;;;4147623;28;20752;-80
2021/06/14 05:34:44;;;;;;;;;;;17.30;99.90;;;;;;4149279;28;20113;-80
2021/06/14 05:36:46;;;;;;;7.82;3.95;;;17.30;99.90;;;;;;4148280;28;19987;-80
2021/06/14 05:38:47;;;;;;;9.18;4.18;;;17.40;99.90;;;;;;4133453;28;20566;-80
2021/06/14 05:40:47;;;;;;;6.55;3.92;;;17.40;99.90;;;;;;4151363;28;20029;-81
2021/06/14 05:42:48;;;;;;;6.75;3.78;;;17.40;99.90;;;;;;4130021;28;20057;-81
2021/06/14 05:44:49;;;;;;;7.68;4.18;;;17.50;99.90;;;;;;4126333;28;20577;-80
2021/06/14 05:46:49;;;;;;;7.72;3.83;;;17.70;99.90;;;;;;4146483;28;20065;-80
2021/06/14 05:49:05;;;;;;;8.98;4.60;;;18.00;99.90;;;;;;4133913;28;20030;-81
2021/06/14 05:51:06;;;;;;;6.82;3.50;;;18.40;99.90;;;;;;4146888;28;20030;-80
2021/06/14 05:53:06;;;;;;;7.35;3.58;;;18.80;99.90;;;;;;4148337;28;20452;-80
2021/06/14 05:55:08;;;;;;;7.00;3.08;;;19.20;99.90;;;;;;4133620;28;20442;-80
2021/06/14 05:57:09;;;;;;;5.30;3.13;;;19.70;99.90;;;;;;4144104;28;20357;-81
2021/06/14 05:59:10;;;;;;;8.57;3.38;;;20.10;99.90;;;;;;4140894;28;20482;-80
2021/06/14 06:01:10;;;;;;;7.20;3.75;;;20.60;99.70;;;;;;4129558;28;20068;-82
2021/06/14 06:03:11;;;;;;;5.40;3.05;;;20.90;98.60;;;;;;4141666;28;20297;-81
2021/06/14 06:05:12;;;;;;;6.80;3.30;;;21.30;97.20;;;;;;4145083;28;20033;-81
2021/06/14 06:07:13;;;;;;;7.90;3.03;;;21.60;95.20;;;;;;4143595;28;20037;-81
2021/06/14 06:09:14;;;;;;;7.18;3.30;;;22.00;94.30;;;;;;4147305;28;20398;-82
2021/06/14 06:11:14;;;;;;;6.75;3.30;;;22.10;93.90;;;;;;4128533;28;20582;-82
2021/06/14 06:13:15;;;;;;;7.60;2.95;;;22.20;93.40;;;;;;4145539;28;20085;-81
2021/06/14 06:15:17;;;;;;;8.88;2.55;;;22.30;92.50;;;;;;4148363;28;20084;-81
2021/06/14 06:17:18;;;;;;;6.13;2.97;;;22.50;92.50;;;;;;4145462;28;20037;-81
2021/06/14 06:19:18;;;;;;;6.82;2.85;;;22.70;91.00;;;;;;4142496;28;20978;-81
2021/06/14 06:21:20;;;;;;;5.13;2.67;;;22.80;90.10;;;;;;4132134;28;20073;-81
2021/06/14 06:23:21;;;;;;;6.40;2.80;;;23.00;89.40;;;;;;4127254;28;20053;-81
2021/06/14 06:25:24;;;;;;;4.22;2.75;;;23.10;88.90;;;;;;4132572;28;20564;-81
2021/06/14 06:27:24;;;;;;;7.63;2.88;;;23.20;87.00;;;;;;4147354;28;20049;-81
2021/06/14 06:29:25;;;;;;;6.47;2.90;;;23.10;88.50;;;;;;4129488;28;20177;-81
2021/06/14 06:31:26;;;;;;;6.05;3.13;;;23.20;86.60;;;;;;4142279;28;20158;-81
2021/06/14 06:33:26;;;;;;;7.32;3.20;;;23.20;86.50;;;;;;4146072;28;20049;-81
2021/06/14 06:35:27;;;;;;;5.88;2.88;;;23.00;85.80;;;;;;4125599;28;20050;-81
2021/06/14 06:37:28;;;;;;;4.88;2.83;;;23.00;86.10;;;;;;4126639;28;20038;-81
2021/06/14 06:39:28;;;;;;;6.28;3.08;;;22.90;86.40;;;;;;4141873;28;20443;-82
2021/06/14 06:41:29;;;;;;;6.57;2.90;;;22.90;87.10;;;;;;4142889;28;20423;-81
2021/06/14 06:43:29;;;;;;;6.57;2.85;;;22.80;85.00;;;;;;4142831;28;20390;-81
2021/06/14 06:45:30;;;;;;;5.93;2.78;;;22.80;85.20;;;;;;4140896;28;20045;-81
2021/06/14 06:47:31;;;;;;;6.45;3.08;;;22.60;85.30;;;;;;4146042;28;20072;-81
2021/06/14 06:49:32;;;;;;;7.60;2.78;;;22.60;85.20;;;;;;4127875;28;20758;-81
2021/06/14 06:51:33;;;;;;;7.45;3.10;;;22.60;85.50;;;;;;4144013;28;20100;-81
2021/06/14 06:53:34;;;;;;;7.22;3.63;;;22.60;85.40;;;;;;4141508;28;20293;-81
2021/06/14 06:55:34;;;;;;;5.22;2.60;;;22.60;88.20;;;;;;4143608;28;20057;-81
2021/06/14 06:57:36;;;;;;;7.15;3.22;;;22.50;85.70;;;;;;4142626;28;20022;-81
2021/06/14 06:59:36;;;;;;;7.10;3.08;;;22.50;84.90;;;;;;4142519;28;20458;-81
2021/06/14 07:01:37;;;;;;;5.95;3.08;;;22.30;85.00;;;;;;4143976;28;20068;-81
2021/06/14 07:03:39;;;;;;;7.97;3.53;;;22.20;84.60;;;;;;4144994;28;20079;-81
2021/06/14 07:05:40;;;;;;;7.55;3.35;;;22.10;85.80;;;;;;4142843;28;20057;-80
2021/06/14 07:07:42;;;;;;;8.60;3.08;;;22.10;88.00;;;;;;4144578;28;20363;-81
2021/06/14 07:09:43;;;;;;;6.25;3.08;;;22.00;86.30;;;;;;4140100;28;20499;-81
2021/06/14 07:11:44;;;;;;;7.22;3.10;;;22.10;87.80;;;;;;4123637;28;20041;-81
2021/06/14 07:13:45;;;;;;;8.82;3.35;;;22.00;87.00;;;;;;4124918;28;20034;-82
2021/06/14 07:15:46;;;;;;;6.68;3.03;;;21.90;87.40;;;;;;4129115;28;20057;-80
2021/06/14 07:17:46;;;;;;;5.45;2.92;;;21.90;88.00;;;;;;4124520;28;20037;-81
2021/06/14 07:19:48;;;;;;;7.53;3.72;;;21.80;87.90;;;;;;4124956;28;20078;-81
2021/06/14 07:21:49;;;;;;;5.30;3.10;;;21.80;87.90;;;;;;4143808;28;20049;-80
2021/06/14 07:23:51;;;;;;;5.90;3.35;;;21.60;88.60;;;;;;4139162;28;20034;-80
2021/06/14 07:25:51;;;;;;;7.43;3.05;;;21.70;89.60;;;;;;4143870;28;20050;-81
2021/06/14 07:27:52;;;;;;;8.48;3.10;;;21.60;90.10;;;;;;4141797;28;20057;-81
2021/06/14 07:29:53;;;;;;;7.20;3.70;;;21.70;91.00;;;;;;4123120;28;20046;-81
2021/06/14 07:31:57;;;;;;;7.90;3.10;;;21.60;90.50;;;;;;4142648;28;20065;-80
2021/06/14 07:34:00;;;;;;;8.63;3.38;;;21.60;90.40;;;;;;4142778;28;20400;-81
2021/06/14 07:36:03;;;;;;;11.30;3.50;;;21.60;89.10;;;;;;4124597;28;20048;-81
2021/06/14 07:38:06;;;;;;;6.85;3.35;;;21.50;90.10;;;;;;4126681;28;20026;-81
2021/06/14 07:40:08;;;;;;;7.35;3.25;;;21.50;89.80;;;;;;4144854;28;20042;-81
2021/06/14 07:42:08;;;;;;;6.43;3.22;;;21.50;90.10;;;;;;4142611;28;20041;-81
2021/06/14 07:44:09;;;;;;;6.90;3.10;;;21.50;89.30;;;;;;4141583;28;20030;-80
2021/06/14 07:46:10;;;;;;;7.57;3.17;;;21.50;89.20;;;;;;4144232;28;20050;-81
2021/06/14 07:48:11;;;;;;;9.52;3.42;;;21.50;89.10;;;;;;4150527;28;20049;-80
2021/06/14 07:50:12;;;;;;;7.70;3.08;;;21.50;87.90;;;;;;4150381;28;20053;-80
2021/06/14 07:52:13;;;;;;;7.72;3.20;;;21.50;90.10;;;;;;4149434;28;20075;-80
2021/06/14 07:54:14;;;;;;;9.77;3.40;;;21.50;90.00;;;;;;4132338;28;20046;-81
2021/06/14 07:56:19;;;;;;;9.35;3.55;;;21.60;90.30;;;;;;4150310;28;20038;-82
2021/06/14 07:58:20;;;;;;;5.55;3.05;;;21.60;88.10;;;;;;4138161;28;20076;-80
2021/06/14 08:00:21;;;;;;;7.65;3.40;;;21.60;88.50;;;;;;4151047;28;20049;-80
2021/06/14 08:02:21;;;;;;;4.07;2.58;;;21.70;88.10;;;;;;4150907;28;20565;-81
2021/06/14 08:04:22;;;;;;;7.22;2.90;;;21.70;88.70;;;;;;4151890;28;20038;-80
2021/06/14 08:06:23;;;;;;;7.82;3.45;;;21.70;86.80;;;;;;4139838;28;20138;-80
2021/06/14 08:08:23;;;;;;;5.28;2.45;;;21.70;87.30;;;;;;4134903;28;20102;-81
2021/06/14 08:10:24;;;;;;;5.57;2.67;;;21.80;85.80;;;;;;4147504;28;20045;-80
2021/06/14 08:12:33;;;;;;;5.40;2.63;;;21.80;86.60;;;;;;4150174;28;20041;-80
2021/06/14 08:14:34;;;;;;;8.82;3.17;;;21.80;86.60;;;;;;4148594;28;20046;-80
2021/06/14 08:16:40;;;;;;;6.70;2.55;;;21.90;86.50;;;;;;4151278;28;20519;-80
2021/06/14 08:18:45;;;;;;;5.82;2.90;;;21.90;86.80;;;;;;4123220;28;20120;-80
2021/06/14 08:25:18;;;;;;;4.78;2.70;;;22.20;84.60;;;;;;4153346;28;20034;-80
2021/06/14 08:27:20;;;;;;;6.28;3.05;;;22.30;84.60;;;;;;4148324;28;20072;-80
2021/06/14 08:29:23;;;;;;;14.25;3.78;;;22.30;84.00;;;;;;4146715;28;20056;-80
2021/06/14 08:31:27;;;;;;;;;;;22.40;83.40;;;;;;4151895;28;20816;-80
2021/06/14 08:33:28;;;;;;;4.85;2.55;;;22.50;84.30;;;;;;4143781;28;19943;-80
2021/06/14 08:35:29;;;;;;;4.45;2.40;;;22.50;84.40;;;;;;4135820;28;20035;-80
2021/06/14 08:37:30;;;;;;;6.93;2.80;;;22.60;84.20;;;;;;4153831;28;20113;-80
2021/06/14 08:39:31;;;;;;;7.68;2.90;;;22.70;83.80;;;;;;4147581;28;20116;-81
2021/06/14 08:41:32;;;;;;;7.82;3.28;;;22.70;81.30;;;;;;4149340;28;20750;-81
2021/06/14 08:43:37;;;;;;;5.90;2.75;;;22.80;81.70;;;;;;4143835;28;20054;-80
2021/06/14 08:45:40;;;;;;;6.43;2.92;;;22.80;85.10;;;;;;4147045;28;20045;-80
2021/06/14 08:47:43;;;;;;;5.75;2.60;;;22.90;83.20;;;;;;4152184;28;20061;-80
2021/06/14 08:49:44;;;;;;;;;;;23.00;81.60;;;;;;4142377;28;20172;-80
2021/06/14 08:51:45;;;;;;;7.85;2.92;;;23.10;81.30;;;;;;4139825;28;20365;-81
2021/06/14 08:53:51;;;;;;;5.93;2.70;;;23.20;81.70;;;;;;4144795;28;20129;-80
2021/06/14 08:55:52;;;;;;;5.22;2.80;;;23.30;80.20;;;;;;4144210;28;20042;-80
2021/06/14 08:57:53;;;;;;;7.30;2.83;;;23.40;82.40;;;;;;4126782;28;20069;-81
2021/06/14 08:59:53;;;;;;;6.03;2.70;;;23.40;81.80;;;;;;4145751;28;20477;-81
2021/06/14 09:01:54;;;;;;;9.75;3.20;;;23.50;80.80;;;;;;4140537;28;20041;-80
2021/06/14 09:03:54;;;;;;;7.90;3.08;;;23.70;80.10;;;;;;4144991;28;20030;-80
2021/06/14 09:05:56;;;;;;;8.93;3.47;;;23.70;79.50;;;;;;4147097;28;20041;-80
2021/06/14 09:07:57;;;;;;;5.68;2.60;;;23.80;78.30;;;;;;4136350;28;20952;-80
2021/06/14 09:09:57;;;;;;;5.28;2.50;;;23.90;78.00;;;;;;4133760;28;20045;-80
2021/06/14 09:12:01;;;;;;;5.75;2.78;;;23.90;78.40;;;;;;4141937;28;20041;-80
2021/06/14 09:14:14;;;;;;;6.47;3.03;;;24.10;77.90;;;;;;4133901;28;20270;-80
2021/06/14 09:16:16;;;;;;;6.53;2.92;;;24.10;78.90;;;;;;4134650;28;20437;-80
2021/06/14 09:18:22;;;;;;;8.63;3.00;;;24.20;78.00;;;;;;4120841;28;20121;-80
2021/06/14 09:20:25;;;;;;;6.80;3.15;;;24.30;74.40;;;;;;4138069;28;20630;-80
2021/06/14 09:22:27;;;;;;;4.43;2.85;;;24.30;71.80;;;;;;4140421;28;20456;-81
2021/06/14 09:24:27;;;;;;;6.57;2.95;;;24.50;73.30;;;;;;4146229;28;20045;-80
2021/06/14 09:26:41;;;;;;;5.50;2.80;;;24.50;75.00;;;;;;4124411;28;20147;-80
2021/06/14 09:28:57;;;;;;;4.47;2.58;;;24.60;71.20;;;;;;4142695;28;20491;-80
2021/06/14 09:31:11;;;;;;;5.00;2.40;;;24.70;73.60;;;;;;4147124;28;20125;-80
2021/06/14 09:33:26;;;;;;;2.92;1.90;;;24.80;72.40;;;;;;4145991;28;20044;-80
2021/06/14 09:35:32;;;;;;;5.75;2.60;;;24.90;74.00;;;;;;4131045;28;20057;-80
2021/06/14 09:37:32;;;;;;;4.53;2.10;;;24.90;72.90;;;;;;4149568;28;20042;-80
2021/06/14 09:39:45;;;;;;;7.95;2.67;;;25.10;69.60;;;;;;4145932;28;20029;-80
2021/06/14 09:41:48;;;;;;;4.82;2.53;;;25.10;69.60;;;;;;4147698;28;20087;-80
2021/06/14 09:43:50;;;;;;;4.75;2.25;;;25.20;67.60;;;;;;4131286;28;20022;-80
2021/06/14 09:45:51;;;;;;;4.15;2.38;;;25.30;68.90;;;;;;4131400;28;20044;-80
2021/06/14 09:47:54;;;;;;;7.07;2.80;;;25.30;67.80;;;;;;4146981;28;20569;-80
2021/06/14 09:49:58;;;;;;;5.20;2.50;;;25.40;67.10;;;;;;4138891;28;20494;-80
2021/06/14 09:51:59;;;;;;;6.72;3.00;;;25.40;69.30;;;;;;4144336;28;20068;-80
2021/06/14 09:53:59;;;;;;;5.32;2.63;;;25.40;68.10;;;;;;4141896;28;20026;-80
2021/06/14 09:56:17;;;;;;;4.95;2.67;;;25.50;69.00;;;;;;4128672;28;20043;-80
2021/06/14 09:58:22;;;;;;;5.72;2.60;;;25.50;68.60;;;;;;4127214;28;20038;-80
2021/06/14 10:00:22;;;;;;;6.18;2.65;;;25.60;68.80;;;;;;4126896;28;20034;-80
2021/06/14 10:02:23;;;;;;;4.97;2.60;;;25.60;66.70;;;;;;4147838;28;20187;-79
2021/06/14 10:04:34;;;;;;;5.53;2.25;;;25.70;68.70;;;;;;4148967;28;20037;-81
2021/06/14 10:06:39;;;;;;;6.03;3.28;;;25.80;64.90;;;;;;4147817;28;20076;-80
2021/06/14 10:08:44;;;;;;;3.63;2.10;;;25.80;62.50;;;;;;4145819;28;20100;-80
2021/06/14 10:10:44;;;;;;;4.85;2.70;;;25.90;66.10;;;;;;4132912;28;20077;-80
2021/06/14 10:12:50;;;;;;;6.80;3.10;;;26.00;64.30;;;;;;4148395;28;20600;-80
2021/06/14 10:14:58;;;;;;;5.05;2.67;;;26.00;66.00;;;;;;4147619;28;20042;-80
2021/06/14 10:17:03;;;;;;;3.35;2.05;;;26.10;64.70;;;;;;4146106;28;20168;-80
2021/06/14 10:19:08;;;;;;;7.03;3.03;;;26.10;63.30;;;;;;4127797;28;20032;-80
2021/06/14 10:21:26;;;;;;;5.40;2.42;;;26.20;64.70;;;;;;4148732;28;20045;-80
2021/06/14 10:23:26;;;;;;;3.67;2.67;;;26.20;67.30;;;;;;4148170;28;20607;-80
2021/06/14 10:25:27;;;;;;;5.25;3.05;;;26.30;66.90;;;;;;4150552;28;20046;-80
2021/06/14 10:27:28;;;;;;;5.45;2.60;;;26.30;67.80;;;;;;4148142;28;20064;-80
2021/06/14 10:29:29;;;;;;;5.65;2.95;;;26.40;68.20;;;;;;4147761;28;20046;-80
2021/06/14 10:31:31;;;;;;;4.47;2.67;;;26.40;68.30;;;;;;4130699;28;20876;-80
2021/06/14 10:33:31;;;;;;;8.90;3.17;;;26.50;65.30;;;;;;4146815;28;20108;-80
2021/06/14 10:35:32;;;;;;;5.85;2.63;;;26.50;66.00;;;;;;4132021;28;20053;-79
2021/06/14 10:37:45;;;;;;;5.03;2.60;;;26.60;65.40;;;;;;4144366;28;20040;-80
2021/06/14 10:39:52;;;;;;;6.68;3.25;;;26.60;67.90;;;;;;4132655;28;20377;-80
2021/06/14 10:41:53;;;;;;;6.40;3.65;;;26.60;65.80;;;;;;4128567;28;20031;-80
2021/06/14 10:43:55;;;;;;;10.32;4.13;;;26.60;65.30;;;;;;4148197;28;20053;-80
2021/06/14 10:46:17;;;;;;;8.93;2.63;;;26.60;65.60;;;;;;4147871;28;20101;-80
2021/06/14 10:48:32;;;;;;;6.55;2.80;;;26.70;67.40;;;;;;4145038;28;20060;-80
2021/06/14 10:50:35;;;;;;;7.30;3.10;;;26.70;63.60;;;;;;4145708;28;20034;-80
2021/06/14 10:52:40;;;;;;;5.45;2.85;;;26.80;63.50;;;;;;4127191;28;20529;-80